createdAt,value
2022-10-01T00:02:08.511Z,1.40
2022-10-01T00:04:37.124Z,1.80
2022-10-01T00:07:07.199Z,2.47
2022-10-01T00:09:33.776Z,1.83
2022-10-01T00:12:00.381Z,2.00
2022-10-01T00:14:27.708Z,2.20
2022-10-01T00:16:54.386Z,1.73
2022-10-01T00:19:21.768Z,1.70
2022-10-01T00:21:48.249Z,2.20
2022-10-01T00:24:14.716Z,2.70
2022-10-01T00:26:42.517Z,1.13
2022-10-01T00:29:12.325Z,2.15
2022-10-01T00:31:39.315Z,1.95
2022-10-01T00:34:06.537Z,2.00
2022-10-01T00:36:33.233Z,1.80
2022-10-01T00:39:02.638Z,2.03
2022-10-01T00:41:32.442Z,1.73
2022-10-01T00:44:02.017Z,1.77
2022-10-01T00:46:45.668Z,2.15
2022-10-01T00:49:33.524Z,2.72
2022-10-01T00:52:04.675Z,2.05
2022-10-01T00:54:43.251Z,2.10
2022-10-01T00:57:10.590Z,1.25
2022-10-01T00:59:37.390Z,2.03
2022-10-01T01:02:04.044Z,2.03
2022-10-01T01:04:30.645Z,2.05
2022-10-01T01:07:00.883Z,1.98
2022-10-01T01:09:37.347Z,1.67
2022-10-01T01:12:29.930Z,1.73
2022-10-01T01:15:20.233Z,1.77
2022-10-01T01:17:55.617Z,1.40
2022-10-01T01:20:28.794Z,1.58
2022-10-01T01:23:12.776Z,2.25
2022-10-01T01:25:48.098Z,1.25
2022-10-01T01:28:44.454Z,1.92
2022-10-01T01:31:16.528Z,1.98
2022-10-01T01:33:48.037Z,1.85
2022-10-01T01:36:18.632Z,1.75
2022-10-01T01:38:52.549Z,1.90
2022-10-01T01:41:23.334Z,1.40
2022-10-01T01:43:51.920Z,1.23
2022-10-01T01:46:20.154Z,1.85
2022-10-01T01:48:51.133Z,1.40
2022-10-01T01:51:23.836Z,2.60
2022-10-01T01:53:50.851Z,1.80
2022-10-01T01:56:17.888Z,1.63
2022-10-01T01:58:45.789Z,1.50
2022-10-01T02:01:32.855Z,2.20
2022-10-01T02:04:00.800Z,1.80
2022-10-01T02:06:42.826Z,1.30
2022-10-01T02:09:36.689Z,1.80
2022-10-01T02:12:16.013Z,1.63
2022-10-01T02:15:08.806Z,2.03
2022-10-01T02:18:03.165Z,1.67
2022-10-01T02:20:36.097Z,1.58
2022-10-01T02:23:25.587Z,0.80
2022-10-01T02:25:58.337Z,3.17
2022-10-01T02:28:25.503Z,2.00
2022-10-01T02:30:55.031Z,1.58
2022-10-01T02:33:26.797Z,1.83
2022-10-01T02:35:55.185Z,1.75
2022-10-01T02:38:24.359Z,1.33
2022-10-01T02:40:55.349Z,1.30
2022-10-01T02:43:32.655Z,1.45
2022-10-01T02:46:11.561Z,1.80
2022-10-01T02:48:38.089Z,1.73
2022-10-01T02:51:15.852Z,1.17
2022-10-01T02:53:47.238Z,1.40
2022-10-01T02:56:34.551Z,1.70
2022-10-01T02:59:01.045Z,2.10
2022-10-01T03:01:28.032Z,1.90
2022-10-01T03:03:54.475Z,1.88
2022-10-01T03:06:20.917Z,1.40
2022-10-01T03:08:47.348Z,1.08
2022-10-01T03:11:16.128Z,1.88
2022-10-01T03:13:43.812Z,1.40
2022-10-01T03:16:10.497Z,1.85
2022-10-01T03:18:37.076Z,1.83
2022-10-01T03:21:03.607Z,1.65
2022-10-01T03:23:30.052Z,1.77
2022-10-01T03:25:56.657Z,1.20
2022-10-01T03:28:23.183Z,0.93
2022-10-01T03:30:49.645Z,0.93
2022-10-01T03:33:16.091Z,1.35
2022-10-01T03:35:42.524Z,1.48
2022-10-01T03:38:08.992Z,1.85
2022-10-01T03:40:38.940Z,1.83
2022-10-01T03:43:05.380Z,1.95
2022-10-01T03:45:32.189Z,1.42
2022-10-01T03:47:59.129Z,1.10
2022-10-01T03:50:25.581Z,1.13
2022-10-01T03:52:52.041Z,1.67
2022-10-01T03:55:19.303Z,2.00
2022-10-01T03:57:45.863Z,0.88
2022-10-01T04:00:14.048Z,2.28
2022-10-01T04:02:40.624Z,1.48
2022-10-01T04:05:07.498Z,1.33
2022-10-01T04:07:33.958Z,1.70
2022-10-01T04:10:00.409Z,1.65
2022-10-01T04:12:26.869Z,1.10
2022-10-01T04:14:53.305Z,1.45
2022-10-01T04:17:20.759Z,1.10
2022-10-01T04:22:13.654Z,1.30
2022-10-01T04:24:40.089Z,1.85
2022-10-01T04:27:06.567Z,1.48
2022-10-01T04:29:36.783Z,1.40
2022-10-01T04:32:05.932Z,0.88
2022-10-01T04:34:50.812Z,1.02
2022-10-01T04:37:17.261Z,1.23
2022-10-01T04:39:43.706Z,1.25
2022-10-01T04:42:10.161Z,1.52
2022-10-01T04:44:36.642Z,1.17
2022-10-01T04:47:03.162Z,1.08
2022-10-01T04:49:30.077Z,0.73
2022-10-01T04:51:56.537Z,1.40
2022-10-01T04:54:22.982Z,1.55
2022-10-01T04:56:49.509Z,1.20
2022-10-01T04:59:16.253Z,1.85
2022-10-01T05:01:42.775Z,1.00
2022-10-01T05:04:09.292Z,1.33
2022-10-01T05:06:35.774Z,1.02
2022-10-01T05:09:02.234Z,1.13
2022-10-01T05:11:28.728Z,1.27
2022-10-01T05:13:56.060Z,1.10
2022-10-01T05:16:22.586Z,1.27
2022-10-01T05:18:49.099Z,2.22
2022-10-01T05:21:15.812Z,1.05
2022-10-01T05:23:42.489Z,1.35
2022-10-01T05:26:09.121Z,1.80
2022-10-01T05:28:36.123Z,0.90
2022-10-01T05:31:03.682Z,1.10
2022-10-01T05:35:58.253Z,1.38
2022-10-01T05:38:25.076Z,1.33
2022-10-01T05:40:51.587Z,1.58
2022-10-01T05:43:18.723Z,0.95
2022-10-01T05:45:45.213Z,1.00
2022-10-01T05:48:12.821Z,0.70
2022-10-01T05:50:40.710Z,0.85
2022-10-01T05:53:09.856Z,1.30
2022-10-01T05:55:36.520Z,1.40
2022-10-01T05:58:11.205Z,1.08
2022-10-01T06:00:39.480Z,1.38
2022-10-01T06:03:07.120Z,1.35
2022-10-01T06:05:35.749Z,1.17
2022-10-01T06:08:06.295Z,1.13
2022-10-01T06:10:33.016Z,1.52
2022-10-01T06:13:05.382Z,0.80
2022-10-01T06:15:34.390Z,1.17
2022-10-01T06:18:08.493Z,1.23
2022-10-01T06:20:35.588Z,1.00
2022-10-01T06:23:05.746Z,1.95
2022-10-01T06:25:33.230Z,1.30
2022-10-01T06:30:28.896Z,1.20
2022-10-01T06:33:05.517Z,1.63
2022-10-01T06:35:33.363Z,1.48
2022-10-01T06:38:03.209Z,1.10
2022-10-01T06:40:31.036Z,1.08
2022-10-01T06:43:00.595Z,1.08
2022-10-01T06:45:28.866Z,1.67
2022-10-01T06:47:56.946Z,0.93
2022-10-01T06:50:24.886Z,1.02
2022-10-01T06:52:52.175Z,1.40
2022-10-01T06:55:28.899Z,1.52
2022-10-01T06:57:58.366Z,3.92
2022-10-01T07:00:26.727Z,0.80
2022-10-01T07:02:54.238Z,1.50
2022-10-01T07:07:48.943Z,1.30
2022-10-01T07:10:17.177Z,1.17
2022-10-01T07:12:43.973Z,1.08
2022-10-01T07:15:10.521Z,1.02
2022-10-01T07:17:44.928Z,0.90
2022-10-01T07:20:12.849Z,1.20
2022-10-01T07:22:39.339Z,1.75
2022-10-01T07:25:06.431Z,1.10
2022-10-01T07:27:33.438Z,2.42
2022-10-01T07:29:59.889Z,1.85
2022-10-01T07:32:26.475Z,1.08
2022-10-01T07:34:52.982Z,3.25
2022-10-01T07:37:19.487Z,2.83
2022-10-01T07:39:45.984Z,2.45
2022-10-01T07:42:12.453Z,4.13
2022-10-01T07:44:38.912Z,3.35
2022-10-01T07:47:05.404Z,3.97
2022-10-01T07:49:31.906Z,1.70
2022-10-01T07:51:59.096Z,3.22
2022-10-01T07:54:26.141Z,3.90
2022-10-01T07:56:55.818Z,4.05
2022-10-01T07:59:23.219Z,2.40
2022-10-01T08:01:51.759Z,3.28
2022-10-01T08:04:37.869Z,1.67
2022-10-01T08:07:05.365Z,3.47
2022-10-01T08:09:32.052Z,6.28
2022-10-01T08:11:58.498Z,9.25
2022-10-01T08:14:26.110Z,6.45
2022-10-01T08:16:55.819Z,13.10
2022-10-01T08:19:22.467Z,4.75
2022-10-01T08:21:48.992Z,5.45
2022-10-01T08:24:15.452Z,5.00
2022-10-01T08:26:41.889Z,5.40
2022-10-01T08:29:08.348Z,4.95
2022-10-01T08:31:35.498Z,6.55
2022-10-01T08:34:02.141Z,3.67
2022-10-01T08:36:28.609Z,3.78
2022-10-01T08:38:55.050Z,2.63
2022-10-01T08:41:40.891Z,2.80
2022-10-01T08:44:07.615Z,4.18
2022-10-01T08:46:37.195Z,3.30
2022-10-01T08:49:13.098Z,4.50
2022-10-01T08:51:46.788Z,2.85
2022-10-01T08:54:22.461Z,4.97
2022-10-01T08:56:49.105Z,5.30
2022-10-01T08:59:49.818Z,2.20
2022-10-01T09:02:23.386Z,3.38
2022-10-01T09:07:38.289Z,8.20
2022-10-01T09:10:42.148Z,4.18
2022-10-01T09:16:35.301Z,2.83
2022-10-01T09:19:26.640Z,4.10
2022-10-01T09:22:03.352Z,3.08
2022-10-01T09:24:40.677Z,2.40
2022-10-01T09:27:14.177Z,4.60
2022-10-01T09:32:15.596Z,2.83
2022-10-01T09:34:44.081Z,2.38
2022-10-01T09:37:14.828Z,1.30
2022-10-01T09:40:02.513Z,8.98
2022-10-01T09:42:30.099Z,1.92
2022-10-01T09:44:57.857Z,2.22
2022-10-01T09:47:25.774Z,1.80
2022-10-01T09:49:52.416Z,1.73
2022-10-01T09:52:28.278Z,1.40
2022-10-01T09:55:19.818Z,2.10
2022-10-01T09:58:21.530Z,3.55
2022-10-01T10:00:51.710Z,2.50
2022-10-01T10:03:28.741Z,2.97
2022-10-01T10:05:56.126Z,1.90
2022-10-01T10:08:32.000Z,2.08
2022-10-01T10:11:05.993Z,4.25
2022-10-01T10:13:39.009Z,0.95
2022-10-01T10:16:10.598Z,0.98
2022-10-01T10:18:39.617Z,1.83
2022-10-01T10:21:15.118Z,1.50
2022-10-01T10:23:50.793Z,2.75
2022-10-01T10:26:35.731Z,3.00
2022-10-01T10:29:05.065Z,1.25
2022-10-01T10:31:38.684Z,1.95
2022-10-01T10:34:05.194Z,3.85
2022-10-01T10:36:35.567Z,1.73
2022-10-01T10:39:05.780Z,2.15
2022-10-01T10:41:34.468Z,1.50
2022-10-01T10:44:06.247Z,3.05
2022-10-01T10:46:46.322Z,3.67
2022-10-01T10:49:29.574Z,1.98
2022-10-01T10:51:58.408Z,1.67
2022-10-01T10:54:32.405Z,2.13
2022-10-01T10:57:03.686Z,2.22
2022-10-01T10:59:32.491Z,2.28
2022-10-01T11:02:17.069Z,1.83
2022-10-01T11:04:45.924Z,3.53
2022-10-01T11:07:19.573Z,5.97
2022-10-01T11:10:10.746Z,5.38
2022-10-01T11:13:06.656Z,6.38
2022-10-01T11:15:48.504Z,4.85
2022-10-01T11:18:38.578Z,3.47
2022-10-01T11:21:30.194Z,2.38
2022-10-01T11:24:17.535Z,2.38
2022-10-01T11:26:58.777Z,2.30
2022-10-01T11:29:36.788Z,2.47
2022-10-01T11:32:34.035Z,3.13
2022-10-01T11:35:33.078Z,2.22
2022-10-01T11:38:28.577Z,1.75
2022-10-01T11:41:03.356Z,2.97
2022-10-01T11:43:49.578Z,1.58
2022-10-01T11:46:21.312Z,1.80
2022-10-01T11:48:57.325Z,2.15
2022-10-01T11:51:32.181Z,3.30
2022-10-01T11:54:03.834Z,2.03
2022-10-01T11:56:58.494Z,1.52
2022-10-01T11:59:39.922Z,1.95
2022-10-01T12:02:35.604Z,2.08
2022-10-01T12:05:09.727Z,3.03
2022-10-01T12:08:11.681Z,2.42
2022-10-01T12:11:01.162Z,2.08
2022-10-01T12:13:36.089Z,2.40
2022-10-01T12:16:13.607Z,2.60
2022-10-01T12:18:52.076Z,1.92
2022-10-01T12:21:34.856Z,2.50
2022-10-01T12:24:11.232Z,3.53
2022-10-01T12:27:16.899Z,4.72
2022-10-01T12:29:58.851Z,5.38
2022-10-01T12:32:48.258Z,5.63
2022-10-01T12:35:52.019Z,6.10
2022-10-01T12:38:27.529Z,5.57
2022-10-01T12:41:20.217Z,6.07
2022-10-01T12:44:05.552Z,5.80
2022-10-01T12:47:08.461Z,6.85
2022-10-01T12:49:47.884Z,6.65
2022-10-01T12:52:33.844Z,6.43
2022-10-01T12:55:16.216Z,7.70
2022-10-01T12:58:12.513Z,8.23
2022-10-01T13:00:48.247Z,7.28
2022-10-01T13:03:23.868Z,6.72
2022-10-01T13:06:13.801Z,6.07
2022-10-01T13:09:12.666Z,4.70
2022-10-01T13:12:03.944Z,3.85
2022-10-01T13:14:33.512Z,3.47
2022-10-01T13:17:07.757Z,3.83
2022-10-01T13:19:39.256Z,3.40
2022-10-01T13:22:08.885Z,4.13
2022-10-01T13:24:48.310Z,3.28
2022-10-01T13:27:33.554Z,4.68
2022-10-01T13:30:18.548Z,2.58
2022-10-01T13:32:57.851Z,3.60
2022-10-01T13:35:55.373Z,4.50
2022-10-01T13:38:40.638Z,2.55
2022-10-01T13:41:19.020Z,3.00
2022-10-01T13:43:59.150Z,2.85
2022-10-01T13:46:31.122Z,3.78
2022-10-01T13:49:17.696Z,2.47
2022-10-01T13:51:46.086Z,2.58
2022-10-01T13:54:28.415Z,3.65
2022-10-01T13:56:55.008Z,2.38
2022-10-01T13:59:35.739Z,7.60
2022-10-01T14:02:03.214Z,4.03
2022-10-01T14:04:34.478Z,4.85
2022-10-01T14:07:27.877Z,6.30
2022-10-01T14:10:00.722Z,5.50
2022-10-01T14:12:52.066Z,2.70
2022-10-01T14:15:44.206Z,2.53
2022-10-01T14:18:21.412Z,4.70
2022-10-01T14:20:57.093Z,2.65
2022-10-01T14:23:55.960Z,3.70
2022-10-01T14:26:39.704Z,4.72
2022-10-01T14:29:25.061Z,3.00
2022-10-01T14:32:21.025Z,4.03
2022-10-01T14:35:04.747Z,6.55
2022-10-01T14:37:31.361Z,3.75
2022-10-01T14:40:18.693Z,3.25
2022-10-01T14:42:58.945Z,5.75
2022-10-01T14:45:25.782Z,5.47
2022-10-01T14:48:06.408Z,4.63
2022-10-01T14:50:35.237Z,6.22
2022-10-01T14:53:01.704Z,2.70
2022-10-01T14:55:29.439Z,3.22
2022-10-01T14:57:57.555Z,5.88
2022-10-01T15:00:28.200Z,5.03
2022-10-01T15:03:15.604Z,3.95
2022-10-01T15:05:43.047Z,3.95
2022-10-01T15:11:01.339Z,5.00
2022-10-01T15:13:33.788Z,2.70
2022-10-01T15:16:00.612Z,5.10
2022-10-01T15:18:27.409Z,4.70
2022-10-01T15:21:00.109Z,3.25
2022-10-01T15:23:29.468Z,7.75
2022-10-01T15:25:59.033Z,6.47
2022-10-01T15:28:31.771Z,3.50
2022-10-01T15:31:00.936Z,4.85
2022-10-01T15:33:30.274Z,6.03
2022-10-01T15:35:59.272Z,4.80
2022-10-01T15:38:26.967Z,4.03
2022-10-01T15:41:05.023Z,2.28
2022-10-01T15:43:42.113Z,4.40
2022-10-01T15:46:15.383Z,4.93
2022-10-01T15:48:42.062Z,7.25
2022-10-01T15:51:19.130Z,4.90
2022-10-01T15:53:45.923Z,7.85
2022-10-01T15:56:16.558Z,5.85
2022-10-01T15:58:49.525Z,3.72
2022-10-01T16:01:30.321Z,4.85
2022-10-01T16:04:07.997Z,5.53
2022-10-01T16:06:39.378Z,2.53
2022-10-01T16:09:15.587Z,3.85
2022-10-01T16:12:06.355Z,6.20
2022-10-01T16:14:43.831Z,4.82
2022-10-01T16:17:19.729Z,2.28
2022-10-01T16:19:52.230Z,5.95
2022-10-01T16:22:24.521Z,4.03
2022-10-01T16:24:52.244Z,3.85
2022-10-01T16:27:44.175Z,3.25
2022-10-01T16:30:21.264Z,4.40
2022-10-01T16:32:49.186Z,4.57
2022-10-01T16:35:21.604Z,4.13
2022-10-01T16:37:50.113Z,5.63
2022-10-01T16:40:22.180Z,5.25
2022-10-01T16:42:52.025Z,5.75
2022-10-01T16:45:27.728Z,5.28
2022-10-01T16:47:56.724Z,3.88
2022-10-01T16:50:23.894Z,6.25
2022-10-01T16:52:55.445Z,4.55
2022-10-01T16:55:29.781Z,2.95
2022-10-01T16:57:56.383Z,6.88
2022-10-01T17:00:25.862Z,4.05
2022-10-01T17:02:54.004Z,4.75
2022-10-01T17:05:31.228Z,5.30
2022-10-01T17:08:00.871Z,4.78
2022-10-01T17:10:30.967Z,4.13
2022-10-01T17:12:59.540Z,8.02
2022-10-01T17:15:28.050Z,6.40
2022-10-01T17:17:56.556Z,5.78
2022-10-01T17:20:25.472Z,4.00
2022-10-01T17:22:52.186Z,3.22
2022-10-01T17:25:21.029Z,8.43
2022-10-01T17:27:47.624Z,3.22
2022-10-01T17:30:15.015Z,3.92
2022-10-01T17:32:43.259Z,4.07
2022-10-01T17:35:12.052Z,3.95
2022-10-01T17:37:39.342Z,3.88
2022-10-01T17:40:07.082Z,4.43
2022-10-01T17:42:35.484Z,4.75
2022-10-01T17:45:04.036Z,2.85
2022-10-01T17:47:30.581Z,3.47
2022-10-01T17:49:57.032Z,3.53
2022-10-01T17:52:23.494Z,4.53
2022-10-01T17:54:49.981Z,3.55
2022-10-01T17:57:17.256Z,2.63
2022-10-01T17:59:43.830Z,3.03
2022-10-01T18:02:36.633Z,3.88
2022-10-01T18:04:59.106Z,4.13
2022-10-01T18:07:27.074Z,3.85
2022-10-01T18:09:53.908Z,3.90
2022-10-01T18:12:20.717Z,4.15
2022-10-01T18:14:47.355Z,4.82
2022-10-01T18:17:13.832Z,3.75
2022-10-01T18:19:53.487Z,5.75
2022-10-01T18:22:20.833Z,4.15
2022-10-01T18:24:47.617Z,3.40
2022-10-01T18:27:14.215Z,3.05
2022-10-01T18:29:40.758Z,3.97
2022-10-01T18:32:31.486Z,4.03
2022-10-01T18:35:02.592Z,3.65
2022-10-01T18:37:39.057Z,4.78
2022-10-01T18:40:20.392Z,3.10
2022-10-01T18:43:05.682Z,3.78
2022-10-01T18:46:00.556Z,3.78
2022-10-01T18:48:45.782Z,4.18
2022-10-01T18:51:36.216Z,3.22
2022-10-01T18:54:21.692Z,3.30
2022-10-01T18:56:59.661Z,4.53
2022-10-01T18:59:38.126Z,3.03
2022-10-01T19:02:39.232Z,3.42
2022-10-01T19:05:33.549Z,3.65
2022-10-01T19:08:23.494Z,3.70
2022-10-01T19:11:15.753Z,2.80
2022-10-01T19:13:54.446Z,3.03
2022-10-01T19:16:38.944Z,2.88
2022-10-01T19:19:33.569Z,2.50
2022-10-01T19:22:14.710Z,4.30
2022-10-01T19:24:47.171Z,2.60
2022-10-01T19:27:39.064Z,2.60
2022-10-01T19:30:10.625Z,3.97
2022-10-01T19:32:50.629Z,2.42
2022-10-01T19:35:22.748Z,3.20
2022-10-01T19:37:54.892Z,7.40
2022-10-01T19:40:27.818Z,3.47
2022-10-01T19:43:19.684Z,3.22
2022-10-01T19:46:12.975Z,2.88
2022-10-01T19:48:58.053Z,2.70
2022-10-01T19:51:34.789Z,2.78
2022-10-01T19:54:02.364Z,3.58
2022-10-01T19:56:31.630Z,2.88
2022-10-01T19:59:26.384Z,4.00
2022-10-01T20:02:03.568Z,3.38
2022-10-01T20:04:44.416Z,3.83
2022-10-01T20:07:14.176Z,2.90
2022-10-01T20:09:44.123Z,2.40
2022-10-01T20:12:20.618Z,4.00
2022-10-01T20:15:08.916Z,2.70
2022-10-01T20:17:48.609Z,3.28
2022-10-01T20:20:27.306Z,3.10
2022-10-01T20:23:39.165Z,2.50
2022-10-01T20:26:31.200Z,2.90
2022-10-01T20:29:06.925Z,2.97
2022-10-01T20:31:52.485Z,2.85
2022-10-01T20:34:27.979Z,2.63
2022-10-01T20:37:08.148Z,2.88
2022-10-01T20:39:41.410Z,4.30
2022-10-01T20:42:17.095Z,3.22
2022-10-01T20:44:43.902Z,2.40
2022-10-01T20:47:31.287Z,3.45
2022-10-01T20:50:09.323Z,3.85
2022-10-01T20:53:04.522Z,2.92
2022-10-01T20:55:47.546Z,2.97
2022-10-01T20:58:27.793Z,3.15
2022-10-01T21:01:07.953Z,2.75
2022-10-01T21:03:40.193Z,2.88
2022-10-01T21:06:15.589Z,2.40
2022-10-01T21:09:19.073Z,3.83
2022-10-01T21:12:02.200Z,3.40
2022-10-01T21:14:34.642Z,2.55
2022-10-01T21:17:05.192Z,2.20
2022-10-01T21:19:37.440Z,2.15
2022-10-01T21:22:08.662Z,3.42
2022-10-01T21:24:50.244Z,2.65
2022-10-01T21:27:46.887Z,2.53
2022-10-01T21:30:15.401Z,2.65
2022-10-01T21:32:50.683Z,2.58
2022-10-01T21:35:51.765Z,1.83
2022-10-01T21:38:58.824Z,2.17
2022-10-01T21:41:39.773Z,2.80
2022-10-01T21:44:42.086Z,2.58
2022-10-01T21:47:20.657Z,3.30
2022-10-01T21:50:12.166Z,2.55
2022-10-01T21:52:54.239Z,2.50
2022-10-01T21:55:37.282Z,3.72
2022-10-01T21:58:22.985Z,4.65
2022-10-01T22:01:19.404Z,2.85
2022-10-01T22:03:57.412Z,3.13
2022-10-01T22:06:36.305Z,1.95
2022-10-01T22:09:19.169Z,3.35
2022-10-01T22:11:53.886Z,1.75
2022-10-01T22:14:21.900Z,2.35
2022-10-01T22:17:03.690Z,2.45
2022-10-01T22:19:35.676Z,2.28
2022-10-01T22:22:08.878Z,2.40
2022-10-01T22:24:59.142Z,1.77
2022-10-01T22:27:50.698Z,2.33
2022-10-01T22:30:20.175Z,1.98
2022-10-01T22:32:55.325Z,2.28
2022-10-01T22:35:27.138Z,2.75
2022-10-01T22:38:02.779Z,2.25
2022-10-01T22:40:35.935Z,1.98
2022-10-01T22:43:09.301Z,2.50
2022-10-01T22:45:41.943Z,2.65
2022-10-01T22:48:13.645Z,1.58
2022-10-01T22:51:04.889Z,1.90
2022-10-01T22:53:47.319Z,1.95
2022-10-01T22:56:20.208Z,2.13
2022-10-01T22:58:55.785Z,2.63
2022-10-01T23:01:40.837Z,1.90
2022-10-01T23:04:28.322Z,1.17
2022-10-01T23:07:13.567Z,2.03
2022-10-01T23:09:58.689Z,1.92
2022-10-01T23:12:40.341Z,2.17
2022-10-01T23:15:25.771Z,2.05
2022-10-01T23:18:02.321Z,2.42
2022-10-01T23:20:33.217Z,1.67
2022-10-01T23:23:18.062Z,1.67
2022-10-01T23:25:53.671Z,2.53
2022-10-01T23:28:27.869Z,2.10
2022-10-01T23:31:04.348Z,1.80
2022-10-01T23:33:43.006Z,1.85
2022-10-01T23:36:30.869Z,1.95
2022-10-01T23:39:21.944Z,1.52
2022-10-01T23:41:54.978Z,1.52
2022-10-01T23:44:39.873Z,2.28
2022-10-01T23:47:12.508Z,1.48
2022-10-01T23:49:44.440Z,1.77
2022-10-01T23:52:10.956Z,1.27
2022-10-01T23:55:52.616Z,2.20
2022-10-01T23:58:22.206Z,1.83
